KOXD/OXD METAR and TAF weather

Enter ICAO airport designator
Station Type Date Time Source
KOXD METAR 2020/01/22 12:18 UTC NOAA

KOXD 221218Z AUTO 15004KT 10SM CLR M08/M09 A3036 RMK AO2 T10801090


Station Type Date Time Source
KOXD Decoded METAR 2020/01/22 12:18 UTC NOAA

Station name not available
Jan 22, 2020 - 07:18 AM EST / 2020.01.22 1218 UTC
Wind: from the SSE (150 degrees) at 5 MPH (4 KT):0
Visibility: 10 mile(s):0
Sky conditions: clear
Temperature: 17.6 F (-8.0 C)
Windchill: 10 F (-12 C):1
Dew Point: 15.8 F (-9.0 C)
Relative Humidity: 92%
Pressure (altimeter): 30.36 in. Hg (1028 hPa)
ob: KOXD 221218Z AUTO 15004KT 10SM CLR M08/M09 A3036 RMK AO2 T10801090
cycle: 12

Station Type Date Time Source
KOXD TAF UTC NOAA

Error!

Example: see airport list